Weather at Six Mile Volunteer Fire Department Heliport

Public forecast

Using degrees Fahrenheit for public forecast. Weather courtesy of forecast.io.

Closest aviation weather report (METAR) to Six Mile Volunteer Fire Department Heliport

Closest report is Jasper County Airport-Bell Field, 25.5 nm (47.3 km) SSW. Retrieved 2020/10/30 09:35 UTC (0 seconds ago):

KJAS 300935Z AUTO 01004KT 10SM CLR 09/08 A3023 RMK AO2 T00930080

Closest aviation forecast (TAF) to Six Mile Volunteer Fire Department Heliport

Closest forecast is Polk Army Air Field, 32.6 nm (60.4 km) ESE. Retrieved 2020/10/30 08:08 UTC (57 minutes ago):

TAF KPOE 300800Z 3008/3114 35009KT 9999 OVC025 QNH3016INS BECMG 3013/3014 03010G20KT 9999 SKC QNH3025INS BECMG 3016/3017 03009KT 9999 SKC QNH3025INS TX16/3020Z TN08/3106Z